Terminal Aerodrome Forecast
Issued by NWS Green Bay, WI

Home | Current Version | Previous Version | Graphics & Text | Print | Product List | Glossary On
Versions: 1 2 3 4 5 6 7 8 9 10 11 12 13 14 15
000
FTUS43 KGRB 181734
TAFGRB
TAF
KGRB 181734Z 1818/1918 05015G22KT P6SM OVC022
      TEMPO 1818/1822 OVC018
     FM182200 04013G20KT P6SM VCSH OVC015
     FM190100 02014G20KT P6SM BKN025
     FM190300 01012G19KT P6SM SCT150 WS015/03040KT
     FM190900 35011G18KT P6SM SKC=

USA.gov is the U.S. government's official web portal to all federal, state and local government web resources and services.